Time;durP1;ratioP1;P1;durP2;ratioP2;P2;SDS_P1;SDS_P2;PMS_P1;PMS_P2;Temp;Humidity;BMP_temperature;BMP_pressure;BME280_temperature;BME280_humidity;BME280_pressure;Samples;Min_cycle;Max_cycle;Signal;HPM_P1;HPM_P2
2022/08/05 00:00:59;;;;;;;0.00;0.00;;;18.60;99.90;;;;;;5071373;28;20049;-79
2022/08/05 00:03:25;;;;;;;0.00;0.00;;;18.50;99.90;;;;;;5088214;28;20482;-78
2022/08/05 00:05:51;;;;;;;0.00;0.00;;;18.50;99.90;;;;;;5088017;28;20081;-79
2022/08/05 00:08:16;;;;;;;0.00;0.00;;;18.40;99.90;;;;;;5070880;28;20452;-79
2022/08/05 00:10:42;;;;;;;0.00;0.00;;;18.40;99.90;;;;;;5071092;28;20118;-79
2022/08/05 00:13:08;;;;;;;0.00;0.00;;;18.30;99.90;;;;;;5087813;28;20123;-79
2022/08/05 00:15:33;;;;;;;0.00;0.00;;;18.30;99.90;;;;;;5088070;28;20123;-79
2022/08/05 00:17:59;;;;;;;0.00;0.00;;;18.30;99.90;;;;;;5071546;28;20107;-79
2022/08/05 00:20:24;;;;;;;0.00;0.00;;;18.30;99.90;;;;;;5087644;28;20503;-79
2022/08/05 00:22:50;;;;;;;0.00;0.00;;;18.30;99.90;;;;;;5088002;28;20048;-78
2022/08/05 00:25:16;;;;;;;0.00;0.00;;;18.30;99.90;;;;;;5087796;28;20566;-78
2022/08/05 00:27:41;;;;;;;0.00;0.00;;;18.20;99.90;;;;;;5071105;28;20412;-79
2022/08/05 00:30:08;;;;;;;0.00;0.00;;;18.20;99.90;;;;;;5087392;28;20091;-79
2022/08/05 00:32:33;;;;;;;0.00;0.00;;;18.20;99.90;;;;;;5070548;28;20072;-79
2022/08/05 00:34:59;;;;;;;0.10;0.10;;;18.20;99.90;;;;;;5087619;28;20044;-79
2022/08/05 00:37:25;;;;;;;0.00;0.00;;;18.20;99.90;;;;;;5087414;28;20053;-79
2022/08/05 00:39:50;;;;;;;0.98;0.63;;;18.20;99.90;;;;;;5087338;28;20055;-79
2022/08/05 00:42:31;;;;;;;0.00;0.00;;;18.20;99.90;;;;;;5071072;28;20405;-79
2022/08/05 00:44:56;;;;;;;0.00;0.00;;;18.20;99.90;;;;;;5070453;28;20060;-79
2022/08/05 00:47:22;;;;;;;0.00;0.00;;;18.20;99.90;;;;;;5086987;28;20048;-79
2022/08/05 00:49:48;;;;;;;0.00;0.00;;;18.20;99.90;;;;;;5087146;28;20048;-78
2022/08/05 00:52:13;;;;;;;0.00;0.00;;;18.20;99.90;;;;;;5087194;28;20048;-79
2022/08/05 00:54:39;;;;;;;0.00;0.00;;;18.20;99.90;;;;;;5070250;28;20391;-78
2022/08/05 00:57:05;;;;;;;0.00;0.00;;;18.10;99.90;;;;;;5087444;28;20051;-78
2022/08/05 00:59:30;;;;;;;0.45;0.20;;;18.20;99.90;;;;;;5086930;28;20040;-78
2022/08/05 01:01:56;;;;;;;0.00;0.00;;;18.20;99.90;;;;;;5070119;28;20045;-78
2022/08/05 01:04:21;;;;;;;0.00;0.00;;;18.10;99.90;;;;;;5086797;28;20049;-78
2022/08/05 01:06:47;;;;;;;0.00;0.00;;;18.00;99.90;;;;;;5086520;28;20108;-78
2022/08/05 01:09:13;;;;;;;0.22;0.22;;;18.10;99.90;;;;;;5087533;28;20055;-78
2022/08/05 01:11:40;;;;;;;0.00;0.00;;;18.10;99.90;;;;;;5070221;28;20497;-78
2022/08/05 01:14:19;;;;;;;0.00;0.00;;;18.10;99.90;;;;;;5086360;28;20103;-78
2022/08/05 01:16:53;;;;;;;0.13;0.13;;;18.10;99.90;;;;;;5086983;28;20393;-79
2022/08/05 01:19:22;;;;;;;;;;;18.00;99.90;;;;;;5087226;28;20132;-78
2022/08/05 01:22:20;;;;;;;1.67;0.70;;;18.00;99.90;;;;;;5070270;28;19925;-78
2022/08/05 01:24:48;;;;;;;0.00;0.00;;;18.00;99.90;;;;;;5086689;28;20041;-78
2022/08/05 01:27:26;;;;;;;0.00;0.00;;;18.00;99.90;;;;;;5069635;28;20092;-78
2022/08/05 01:29:58;;;;;;;0.00;0.00;;;18.00;99.90;;;;;;5086685;28;20049;-78
2022/08/05 01:32:28;;;;;;;0.00;0.00;;;18.00;99.90;;;;;;5085744;28;20041;-78
2022/08/05 01:34:58;;;;;;;0.00;0.00;;;18.00;99.90;;;;;;5086838;28;20401;-78
2022/08/05 01:37:28;;;;;;;0.00;0.00;;;17.90;99.90;;;;;;5087102;28;20049;-78
2022/08/05 01:39:57;;;;;;;0.00;0.00;;;17.90;99.90;;;;;;5069864;28;20057;-79
2022/08/05 01:42:25;;;;;;;0.22;0.10;;;18.00;99.90;;;;;;5069588;28;20045;-79
2022/08/05 01:44:54;;;;;;;0.00;0.00;;;18.00;99.90;;;;;;5069868;28;20044;-79
2022/08/05 01:47:22;;;;;;;0.00;0.00;;;18.00;99.90;;;;;;5086482;28;20049;-78
2022/08/05 01:49:50;;;;;;;0.10;0.10;;;18.10;99.90;;;;;;5086600;28;20053;-78
2022/08/05 01:52:18;;;;;;;0.00;0.00;;;18.00;99.90;;;;;;5086186;28;20076;-79
2022/08/05 01:54:56;;;;;;;0.00;0.00;;;18.00;99.90;;;;;;5086218;28;20488;-79
2022/08/05 01:57:29;;;;;;;0.00;0.00;;;18.10;99.90;;;;;;5086468;28;20382;-79
2022/08/05 01:59:59;;;;;;;0.00;0.00;;;18.00;99.90;;;;;;5069532;28;20576;-79
2022/08/05 02:02:27;;;;;;;0.00;0.00;;;18.00;99.90;;;;;;5069630;28;20065;-79
2022/08/05 02:04:56;;;;;;;0.00;0.00;;;18.00;99.90;;;;;;5086078;28;20045;-79
2022/08/05 02:07:22;;;;;;;0.00;0.00;;;18.00;99.90;;;;;;5069419;28;20056;-79
2022/08/05 02:09:49;;;;;;;0.03;0.00;;;17.90;99.90;;;;;;5086338;28;20496;-79
2022/08/05 02:12:38;;;;;;;0.00;0.00;;;17.90;99.90;;;;;;5086293;28;20384;-79
2022/08/05 02:15:21;;;;;;;0.00;0.00;;;17.90;99.90;;;;;;5018619;28;20095;-78
2022/08/05 02:17:57;;;;;;;0.00;0.00;;;17.90;99.90;;;;;;5018083;28;20554;-78
2022/08/05 02:20:26;;;;;;;0.00;0.00;;;17.90;99.90;;;;;;5018462;28;20065;-78
2022/08/05 02:22:59;;;;;;;0.00;0.00;;;17.90;99.90;;;;;;5018128;28;20048;-78
2022/08/05 02:25:29;;;;;;;0.10;0.10;;;17.90;99.90;;;;;;5018443;28;20527;-79
2022/08/05 02:27:56;;;;;;;0.00;0.00;;;17.90;99.90;;;;;;5034687;28;20557;-79
2022/08/05 02:30:24;;;;;;;0.00;0.00;;;17.90;99.90;;;;;;5034766;28;20049;-79
2022/08/05 02:32:53;;;;;;;0.00;0.00;;;17.90;99.90;;;;;;5034704;28;20053;-79
2022/08/05 02:35:21;;;;;;;0.00;0.00;;;17.80;99.90;;;;;;5018366;28;20056;-79
2022/08/05 02:37:49;;;;;;;0.00;0.00;;;17.80;99.90;;;;;;5034920;28;20053;-79
2022/08/05 02:40:17;;;;;;;0.45;0.30;;;17.80;99.90;;;;;;5018061;28;20065;-79
2022/08/05 02:42:44;;;;;;;0.00;0.00;;;17.80;99.90;;;;;;5035196;28;20056;-78
2022/08/05 02:45:11;;;;;;;0.00;0.00;;;17.80;99.90;;;;;;5021026;28;20501;-79
2022/08/05 02:47:38;;;;;;;0.00;0.00;;;17.70;99.90;;;;;;5038058;28;20037;-78
2022/08/05 02:50:06;;;;;;;0.00;0.00;;;17.80;99.90;;;;;;5021687;28;20044;-78
2022/08/05 02:52:33;;;;;;;0.00;0.00;;;17.80;99.90;;;;;;5031680;28;20061;-78
2022/08/05 02:55:04;;;;;;;0.00;0.00;;;17.80;99.90;;;;;;5089296;28;20045;-78
2022/08/05 02:57:32;;;;;;;0.32;0.10;;;17.90;99.90;;;;;;5089423;28;20048;-79
2022/08/05 02:59:57;;;;;;;0.00;0.00;;;17.90;99.90;;;;;;5088850;28;20111;-79
2022/08/05 03:02:28;;;;;;;0.00;0.00;;;17.90;99.90;;;;;;5071725;28;20057;-79
2022/08/05 03:04:56;;;;;;;0.00;0.00;;;17.80;99.90;;;;;;5072377;28;20052;-79
2022/08/05 03:07:23;;;;;;;0.00;0.00;;;17.80;99.90;;;;;;5071791;28;20500;-79
2022/08/05 03:09:49;;;;;;;0.00;0.00;;;17.80;99.90;;;;;;5088811;28;20131;-79
2022/08/05 03:12:34;;;;;;;0.00;0.00;;;17.80;99.90;;;;;;5088646;28;20044;-79
2022/08/05 03:15:04;;;;;;;0.03;0.00;;;17.80;99.90;;;;;;5072017;28;20431;-79
2022/08/05 03:17:29;;;;;;;0.00;0.00;;;17.80;99.90;;;;;;5088979;28;20041;-79
2022/08/05 03:19:55;;;;;;;0.00;0.00;;;17.80;99.90;;;;;;5088545;28;20484;-79
2022/08/05 03:22:21;;;;;;;0.10;0.00;;;17.90;99.90;;;;;;5088862;28;20051;-79
2022/08/05 03:24:48;;;;;;;0.13;0.10;;;17.80;99.90;;;;;;5088434;28;20048;-78
2022/08/05 03:27:14;;;;;;;0.00;0.00;;;17.90;99.90;;;;;;5071495;28;20095;-78
2022/08/05 03:29:40;;;;;;;0.00;0.00;;;17.80;99.90;;;;;;5088323;28;20041;-78
2022/08/05 03:32:09;;;;;;;0.00;0.00;;;17.80;99.90;;;;;;5071338;28;20045;-78
2022/08/05 03:34:36;;;;;;;0.00;0.00;;;17.80;99.90;;;;;;5054601;28;20131;-78
2022/08/05 03:37:03;;;;;;;0.00;0.00;;;17.70;99.90;;;;;;5088056;28;20049;-78
2022/08/05 03:39:29;;;;;;;0.00;0.00;;;17.70;99.90;;;;;;5088414;28;20388;-78
2022/08/05 03:41:55;;;;;;;0.00;0.00;;;17.70;99.90;;;;;;5071117;28;20056;-78
2022/08/05 03:44:21;;;;;;;0.00;0.00;;;17.70;99.90;;;;;;5087987;28;20041;-78
2022/08/05 03:46:47;;;;;;;0.00;0.00;;;17.70;99.90;;;;;;5087929;28;20048;-78
2022/08/05 03:49:13;;;;;;;0.00;0.00;;;17.70;99.90;;;;;;5071267;28;20060;-78
2022/08/05 03:52:01;;;;;;;0.00;0.00;;;17.70;99.90;;;;;;5088655;28;20053;-78
2022/08/05 03:54:38;;;;;;;0.00;0.00;;;17.70;99.90;;;;;;5088039;28;20048;-78
2022/08/05 03:57:08;;;;;;;0.00;0.00;;;17.70;99.90;;;;;;5087800;28;20057;-78
2022/08/05 03:59:41;;;;;;;0.00;0.00;;;17.70;99.90;;;;;;5087962;28;20041;-78
2022/08/05 04:02:08;;;;;;;0.00;0.00;;;17.70;99.90;;;;;;5071326;28;20060;-78
2022/08/05 04:04:34;;;;;;;0.00;0.00;;;17.70;99.90;;;;;;5070991;28;20086;-78
2022/08/05 04:07:02;;;;;;;0.00;0.00;;;17.70;99.90;;;;;;5070269;28;20053;-78
2022/08/05 04:09:29;;;;;;;0.00;0.00;;;17.60;99.90;;;;;;5070930;28;20052;-78
2022/08/05 04:11:55;;;;;;;0.00;0.00;;;17.70;99.90;;;;;;5054102;28;20052;-78
2022/08/05 04:14:21;;;;;;;0.00;0.00;;;17.70;99.90;;;;;;5087216;28;20079;-78
2022/08/05 04:16:47;;;;;;;0.00;0.00;;;17.70;99.90;;;;;;5070416;28;20056;-78
2022/08/05 04:19:13;;;;;;;0.00;0.00;;;17.70;99.90;;;;;;5071240;28;20425;-78
2022/08/05 04:21:40;;;;;;;0.20;0.03;;;17.70;99.90;;;;;;5070610;28;20048;-78
2022/08/05 04:24:06;;;;;;;0.05;0.00;;;17.70;99.90;;;;;;5087381;28;20049;-78
2022/08/05 04:26:32;;;;;;;0.00;0.00;;;17.70;99.90;;;;;;5070448;28;20060;-77
2022/08/05 04:28:59;;;;;;;0.45;0.45;;;17.60;99.90;;;;;;5070493;28;20050;-78
2022/08/05 04:31:24;;;;;;;0.00;0.00;;;17.60;99.90;;;;;;5070525;28;20455;-78
2022/08/05 04:33:50;;;;;;;0.00;0.00;;;17.70;99.90;;;;;;5086815;28;20041;-78
2022/08/05 04:36:16;;;;;;;0.00;0.00;;;17.70;99.90;;;;;;5087553;28;20045;-78
2022/08/05 04:38:42;;;;;;;0.00;0.00;;;17.70;99.90;;;;;;5087338;28;20037;-78
2022/08/05 04:41:08;;;;;;;0.00;0.00;;;17.60;99.90;;;;;;5087311;28;20044;-78
2022/08/05 04:43:33;;;;;;;0.10;0.00;;;17.60;99.90;;;;;;5087721;28;20048;-78
2022/08/05 04:45:59;;;;;;;0.00;0.00;;;17.60;99.90;;;;;;5087180;28;20504;-78
2022/08/05 04:48:25;;;;;;;0.00;0.00;;;17.60;99.90;;;;;;5087028;28;20045;-78
2022/08/05 04:50:50;;;;;;;0.00;0.00;;;17.60;99.90;;;;;;5087104;28;20037;-78
2022/08/05 04:53:17;;;;;;;0.00;0.00;;;17.70;99.90;;;;;;5037098;28;20136;-78
2022/08/05 04:55:44;;;;;;;0.20;0.20;;;17.60;99.90;;;;;;5069747;28;20522;-78
2022/08/05 04:58:12;;;;;;;0.00;0.00;;;17.50;99.90;;;;;;5087078;28;20041;-78
2022/08/05 05:00:39;;;;;;;0.00;0.00;;;17.60;99.90;;;;;;5087191;28;20163;-78
2022/08/05 05:03:06;;;;;;;0.00;0.00;;;17.50;99.90;;;;;;5086965;28;20087;-78
2022/08/05 05:05:32;;;;;;;0.00;0.00;;;17.50;99.90;;;;;;5087041;28;20048;-78
2022/08/05 05:08:03;;;;;;;0.00;0.00;;;17.60;99.90;;;;;;5086390;28;20055;-78
2022/08/05 05:10:30;;;;;;;0.00;0.00;;;17.50;99.90;;;;;;5086952;28;20057;-78
2022/08/05 05:12:57;;;;;;;0.00;0.00;;;17.60;99.90;;;;;;5053683;28;20142;-78
2022/08/05 05:15:25;;;;;;;0.00;0.00;;;17.60;99.90;;;;;;5086717;28;20489;-78
2022/08/05 05:17:51;;;;;;;0.00;0.00;;;17.50;99.90;;;;;;5053516;28;20401;-78
2022/08/05 05:20:16;;;;;;;0.00;0.00;;;17.50;99.90;;;;;;5087084;28;20051;-78
2022/08/05 05:22:42;;;;;;;0.00;0.00;;;17.60;99.90;;;;;;5087084;28;20126;-78
2022/08/05 05:25:08;;;;;;;0.00;0.00;;;17.60;99.90;;;;;;5053017;28;20037;-78
2022/08/05 05:27:35;;;;;;;0.00;0.00;;;17.50;99.90;;;;;;5086700;28;20045;-78
2022/08/05 05:30:01;;;;;;;0.00;0.00;;;17.60;99.90;;;;;;5036532;28;20408;-78
2022/08/05 05:32:27;;;;;;;0.00;0.00;;;17.60;99.90;;;;;;5087227;28;20132;-79
2022/08/05 05:34:53;;;;;;;0.00;0.00;;;17.60;99.90;;;;;;5086852;28;20149;-78
2022/08/05 05:37:19;;;;;;;0.00;0.00;;;17.60;99.90;;;;;;5086663;28;20049;-78
2022/08/05 05:39:44;;;;;;;0.00;0.00;;;17.60;99.90;;;;;;5052839;28;20045;-78
2022/08/05 05:42:10;;;;;;;0.00;0.00;;;17.60;99.90;;;;;;5053443;28;20048;-78
2022/08/05 05:44:36;;;;;;;0.00;0.00;;;17.60;99.90;;;;;;5086977;28;20397;-78
2022/08/05 05:47:01;;;;;;;0.00;0.00;;;17.70;99.90;;;;;;5052708;28;20447;-78
2022/08/05 05:49:27;;;;;;;0.00;0.00;;;17.70;99.90;;;;;;5086401;28;20131;-78
2022/08/05 05:51:53;;;;;;;0.00;0.00;;;17.70;99.90;;;;;;5086224;28;20104;-78
2022/08/05 05:54:19;;;;;;;0.00;0.00;;;17.70;99.90;;;;;;5069079;28;20089;-78
2022/08/05 05:56:45;;;;;;;0.00;0.00;;;17.70;99.90;;;;;;5053485;28;20041;-78
2022/08/05 05:59:11;;;;;;;0.10;0.00;;;17.70;99.90;;;;;;5086650;28;20088;-78
2022/08/05 06:01:38;;;;;;;0.00;0.00;;;17.70;99.90;;;;;;5086398;28;20079;-78
2022/08/05 06:04:08;;;;;;;0.00;0.00;;;17.70;99.90;;;;;;5086332;28;20048;-78
2022/08/05 06:06:35;;;;;;;0.00;0.00;;;17.70;99.90;;;;;;5085793;28;20074;-78
2022/08/05 06:09:05;;;;;;;0.00;0.00;;;17.70;99.90;;;;;;5086141;28;20099;-78
2022/08/05 06:11:31;;;;;;;0.03;0.03;;;17.70;99.90;;;;;;5069206;28;20041;-77
2022/08/05 06:13:58;;;;;;;0.00;0.00;;;17.80;99.90;;;;;;5069122;28;20127;-77
2022/08/05 06:16:24;;;;;;;0.10;0.00;;;17.80;99.90;;;;;;5086229;28;20431;-77
2022/08/05 06:18:49;;;;;;;0.00;0.00;;;17.80;99.90;;;;;;5087258;28;20055;-77
2022/08/05 06:21:16;;;;;;;0.00;0.00;;;17.80;99.90;;;;;;5089678;28;20124;-77
2022/08/05 06:23:41;;;;;;;0.00;0.00;;;17.80;99.90;;;;;;5090422;28;20157;-77
2022/08/05 06:26:07;;;;;;;0.00;0.00;;;17.90;99.90;;;;;;5089824;28;20148;-77
2022/08/05 06:28:33;;;;;;;0.00;0.00;;;17.90;99.90;;;;;;5089610;28;20056;-77
2022/08/05 06:30:58;;;;;;;0.00;0.00;;;17.90;99.90;;;;;;5056235;28;20037;-77
2022/08/05 06:33:24;;;;;;;0.00;0.00;;;17.90;99.90;;;;;;5073697;28;20092;-77
2022/08/05 06:35:50;;;;;;;0.00;0.00;;;17.90;99.90;;;;;;5039702;28;20398;-78
2022/08/05 06:38:16;;;;;;;0.00;0.00;;;18.00;99.90;;;;;;5089353;28;20052;-78
2022/08/05 06:40:42;;;;;;;0.00;0.00;;;18.00;99.90;;;;;;5072384;28;20049;-78
2022/08/05 06:43:08;;;;;;;0.00;0.00;;;18.00;99.90;;;;;;5089509;28;20103;-78
2022/08/05 06:45:34;;;;;;;0.00;0.00;;;18.00;99.90;;;;;;5089551;28;20389;-78
2022/08/05 06:48:00;;;;;;;0.45;0.05;;;18.00;99.90;;;;;;5089543;28;20045;-78
2022/08/05 06:50:26;;;;;;;0.00;0.00;;;18.10;99.90;;;;;;5089412;28;20044;-78
2022/08/05 06:52:52;;;;;;;0.00;0.00;;;18.10;99.90;;;;;;5072526;28;20091;-78
2022/08/05 06:55:18;;;;;;;0.00;0.00;;;18.10;99.90;;;;;;5089046;28;20048;-78
2022/08/05 06:57:43;;;;;;;0.00;0.00;;;18.10;99.90;;;;;;5072683;28;20144;-78
2022/08/05 07:00:10;;;;;;;0.00;0.00;;;18.20;99.90;;;;;;5072755;28;20554;-78
2022/08/05 07:02:43;;;;;;;0.00;0.00;;;18.20;99.90;;;;;;5039435;28;20063;-78
2022/08/05 07:05:10;;;;;;;0.20;0.20;;;18.20;99.90;;;;;;5072312;28;20052;-78
2022/08/05 07:07:36;;;;;;;0.00;0.00;;;18.20;99.90;;;;;;5072419;28;20084;-78
2022/08/05 07:10:02;;;;;;;0.00;0.00;;;18.20;99.90;;;;;;5089099;28;20049;-78
2022/08/05 07:17:56;;;;;;;0.00;0.00;;;18.40;99.90;;;;;;5089373;28;20212;-77
2022/08/05 07:20:21;;;;;;;0.00;0.00;;;18.30;99.90;;;;;;5089139;28;20136;-78
2022/08/05 07:22:47;;;;;;;4.18;1.00;;;18.40;99.90;;;;;;5071823;28;20051;-78
2022/08/05 07:25:13;;;;;;;0.00;0.00;;;18.50;99.90;;;;;;5089098;28;20051;-78
2022/08/05 07:27:38;;;;;;;0.00;0.00;;;18.50;99.90;;;;;;5088819;28;20045;-78
2022/08/05 07:30:04;;;;;;;0.25;0.25;;;18.60;99.90;;;;;;5053846;28;20044;-78
2022/08/05 07:32:37;;;;;;;0.00;0.00;;;18.60;99.90;;;;;;5089280;28;20045;-78
2022/08/05 07:35:10;;;;;;;0.00;0.00;;;18.70;99.90;;;;;;5088769;28;20451;-78
2022/08/05 07:37:36;;;;;;;0.00;0.00;;;18.80;99.90;;;;;;5089126;28;20080;-78
2022/08/05 07:40:03;;;;;;;0.00;0.00;;;19.00;99.90;;;;;;5071669;28;20064;-78
2022/08/05 07:42:29;;;;;;;0.00;0.00;;;19.10;99.90;;;;;;5071351;28;20511;-78
2022/08/05 07:44:55;;;;;;;0.00;0.00;;;19.20;99.90;;;;;;5054814;28;20036;-78
2022/08/05 07:47:21;;;;;;;0.00;0.00;;;19.30;99.90;;;;;;5088424;28;20094;-78
2022/08/05 07:49:47;;;;;;;0.00;0.00;;;19.30;99.90;;;;;;5088199;28;20045;-78
2022/08/05 07:52:13;;;;;;;0.00;0.00;;;19.30;99.90;;;;;;5071281;28;20063;-79
2022/08/05 07:54:38;;;;;;;0.00;0.00;;;19.40;99.90;;;;;;5088111;28;20083;-79
2022/08/05 07:57:04;;;;;;;0.00;0.00;;;19.50;99.90;;;;;;5088101;28;20047;-79
2022/08/05 07:59:30;;;;;;;0.00;0.00;;;19.60;99.90;;;;;;5071428;28;20599;-79
2022/08/05 08:01:55;;;;;;;0.00;0.00;;;19.60;99.90;;;;;;5071560;28;20080;-79
2022/08/05 08:04:21;;;;;;;0.43;0.20;;;19.80;99.90;;;;;;5071195;28;20079;-79
2022/08/05 08:06:47;;;;;;;0.00;0.00;;;20.00;99.90;;;;;;5070878;28;20115;-79
2022/08/05 08:09:12;;;;;;;0.00;0.00;;;20.20;99.90;;;;;;5071163;28;20567;-79
2022/08/05 08:11:38;;;;;;;0.00;0.00;;;20.40;99.90;;;;;;5054242;28;20044;-79
2022/08/05 08:14:04;;;;;;;0.00;0.00;;;20.50;99.90;;;;;;5070393;28;20135;-79
2022/08/05 08:16:29;;;;;;;0.00;0.00;;;20.50;99.90;;;;;;5087650;28;20044;-79
2022/08/05 08:18:55;;;;;;;0.00;0.00;;;20.40;99.90;;;;;;5088145;28;20396;-79
2022/08/05 08:21:21;;;;;;;0.00;0.00;;;20.40;99.90;;;;;;5070621;28;20057;-79
2022/08/05 08:23:46;;;;;;;0.00;0.00;;;20.40;99.90;;;;;;5070558;28;20488;-79
2022/08/05 08:26:12;;;;;;;1.50;0.55;;;20.30;99.90;;;;;;5087242;28;20098;-79
2022/08/05 08:28:38;;;;;;;0.00;0.00;;;20.30;99.90;;;;;;5070414;28;20049;-79
2022/08/05 08:31:05;;;;;;;0.00;0.00;;;20.30;99.90;;;;;;5053832;28;20513;-79
2022/08/05 08:33:31;;;;;;;0.00;0.00;;;20.30;99.90;;;;;;5087100;28;20037;-79
2022/08/05 08:35:57;;;;;;;0.00;0.00;;;20.30;99.90;;;;;;5087387;28;20041;-79
2022/08/05 08:38:22;;;;;;;0.00;0.00;;;20.30;99.90;;;;;;5087429;28;20064;-79
2022/08/05 08:40:48;;;;;;;0.30;0.30;;;20.30;99.90;;;;;;5053604;28;20108;-79
2022/08/05 08:43:17;;;;;;;0.00;0.00;;;20.30;99.90;;;;;;5037186;28;20140;-79
2022/08/05 08:45:45;;;;;;;0.40;0.10;;;20.30;99.90;;;;;;5087400;28;20053;-79
2022/08/05 08:48:14;;;;;;;0.00;0.00;;;20.30;99.90;;;;;;5071136;28;20060;-79
2022/08/05 08:50:41;;;;;;;0.00;0.00;;;20.40;99.90;;;;;;5070527;28;20122;-79
2022/08/05 08:53:10;;;;;;;0.00;0.00;;;20.50;99.90;;;;;;5070422;28;20048;-79
2022/08/05 08:55:38;;;;;;;0.00;0.00;;;20.50;99.90;;;;;;5087064;28;20076;-79
2022/08/05 08:58:04;;;;;;;0.00;0.00;;;20.60;99.90;;;;;;5053603;28;20077;-79
2022/08/05 09:00:30;;;;;;;0.00;0.00;;;20.60;99.90;;;;;;5070195;28;20091;-79
2022/08/05 09:02:56;;;;;;;0.28;0.15;;;20.60;99.90;;;;;;5069972;28;20485;-79
2022/08/05 09:05:22;;;;;;;0.00;0.00;;;20.60;99.90;;;;;;5086502;28;20067;-79
2022/08/05 09:07:51;;;;;;;0.00;0.00;;;20.60;99.90;;;;;;5086179;28;20057;-79
2022/08/05 09:10:17;;;;;;;0.00;0.00;;;20.60;99.90;;;;;;5086561;28;20048;-78
2022/08/05 09:12:43;;;;;;;0.00;0.00;;;20.60;99.90;;;;;;5069690;28;20120;-78
2022/08/05 09:15:09;;;;;;;0.00;0.00;;;20.70;99.90;;;;;;5086624;28;20050;-78
2022/08/05 09:17:35;;;;;;;0.00;0.00;;;20.60;99.90;;;;;;5086157;28;20524;-78
2022/08/05 09:20:03;;;;;;;0.57;0.22;;;20.60;99.90;;;;;;5086359;28;20041;-78
2022/08/05 09:23:01;;;;;;;0.17;0.17;;;20.60;99.90;;;;;;5086310;28;20150;-78
2022/08/05 09:25:27;;;;;;;0.00;0.00;;;20.60;99.90;;;;;;5069935;28;20044;-78
2022/08/05 09:27:52;;;;;;;0.00;0.00;;;20.60;99.90;;;;;;5069588;28;20437;-79
2022/08/05 09:30:19;;;;;;;0.00;0.00;;;20.70;99.90;;;;;;5069222;28;20488;-79
2022/08/05 09:32:44;;;;;;;0.00;0.00;;;20.90;99.90;;;;;;5086138;28;20494;-79
2022/08/05 09:35:15;;;;;;;0.00;0.00;;;21.00;99.90;;;;;;5086278;28;20040;-79
2022/08/05 09:37:55;;;;;;;0.00;0.00;;;21.20;99.90;;;;;;5086253;28;20033;-78
2022/08/05 09:40:36;;;;;;;0.65;0.15;;;21.20;99.90;;;;;;5086202;28;20098;-78
2022/08/05 09:43:05;;;;;;;0.00;0.00;;;21.40;99.90;;;;;;5086140;28;20045;-78
2022/08/05 09:45:40;;;;;;;0.00;0.00;;;21.70;99.90;;;;;;5086093;28;20045;-78
2022/08/05 09:48:25;;;;;;;0.00;0.00;;;21.70;99.90;;;;;;5086784;28;20063;-78
2022/08/05 09:50:57;;;;;;;0.00;0.00;;;21.70;99.90;;;;;;5069562;28;20041;-78
2022/08/05 09:53:23;;;;;;;0.00;0.00;;;21.70;99.90;;;;;;5069709;28;20060;-78
2022/08/05 09:56:00;;;;;;;0.00;0.00;;;21.60;99.90;;;;;;5072921;28;20485;-78
2022/08/05 09:58:27;;;;;;;0.00;0.00;;;21.60;99.90;;;;;;5090818;28;20051;-78
2022/08/05 10:01:03;;;;;;;0.00;0.00;;;21.50;99.90;;;;;;5073324;28;20408;-78
2022/08/05 10:03:29;;;;;;;0.00;0.00;;;21.40;99.90;;;;;;5073555;28;20136;-78
2022/08/05 10:06:09;;;;;;;0.00;0.00;;;21.40;99.90;;;;;;5090045;28;20084;-78
2022/08/05 10:08:36;;;;;;;0.00;0.00;;;21.50;99.90;;;;;;5089720;28;20131;-78
2022/08/05 10:11:04;;;;;;;0.00;0.00;;;21.60;99.90;;;;;;5090037;28;20091;-78
2022/08/05 10:13:31;;;;;;;3.63;0.20;;;21.70;99.90;;;;;;5089836;28;20204;-78
2022/08/05 10:15:59;;;;;;;0.00;0.00;;;21.80;99.90;;;;;;5089856;28;20080;-78
2022/08/05 10:18:26;;;;;;;0.00;0.00;;;21.90;99.90;;;;;;5089917;28;20049;-78
2022/08/05 10:20:58;;;;;;;0.00;0.00;;;22.10;99.90;;;;;;5089751;28;20060;-78
2022/08/05 10:23:32;;;;;;;0.00;0.00;;;22.20;99.90;;;;;;5073213;28;20099;-78
2022/08/05 10:26:01;;;;;;;0.00;0.00;;;22.40;99.90;;;;;;5090118;28;20053;-78
2022/08/05 10:28:27;;;;;;;0.00;0.00;;;22.60;99.90;;;;;;5090120;28;20049;-78
2022/08/05 10:30:53;;;;;;;0.00;0.00;;;22.80;99.90;;;;;;5089837;28;20040;-78
2022/08/05 10:33:22;;;;;;;0.00;0.00;;;22.90;98.10;;;;;;5089262;28;20393;-78
2022/08/05 10:35:49;;;;;;;0.13;0.13;;;23.00;96.90;;;;;;5089436;28;20504;-78
2022/08/05 10:38:17;;;;;;;0.00;0.00;;;22.70;93.40;;;;;;5089573;28;20064;-78
2022/08/05 10:40:49;;;;;;;0.00;0.00;;;22.40;92.90;;;;;;5089819;28;20056;-78
2022/08/05 10:43:40;;;;;;;0.00;0.00;;;22.40;95.70;;;;;;5072803;28;20044;-78
2022/08/05 10:46:10;;;;;;;0.00;0.00;;;22.50;95.20;;;;;;5089975;28;20132;-78
2022/08/05 10:48:43;;;;;;;0.17;0.17;;;22.90;95.40;;;;;;5089185;28;20041;-78
2022/08/05 10:51:11;;;;;;;0.00;0.00;;;23.10;91.70;;;;;;5089302;28;20063;-78
2022/08/05 10:53:55;;;;;;;0.00;0.00;;;23.00;91.10;;;;;;5089206;28;20091;-77
2022/08/05 10:56:23;;;;;;;0.00;0.00;;;23.10;92.50;;;;;;5072415;28;20465;-77
2022/08/05 10:58:52;;;;;;;0.10;0.00;;;23.30;94.80;;;;;;5089350;28;20384;-77
2022/08/05 11:01:29;;;;;;;1.90;0.55;;;23.60;94.10;;;;;;5089032;28;20045;-77
2022/08/05 11:04:10;;;;;;;0.00;0.00;;;23.70;90.60;;;;;;5038924;28;20060;-77
2022/08/05 11:06:56;;;;;;;0.00;0.00;;;23.80;88.70;;;;;;5088896;28;20088;-78
2022/08/05 11:09:24;;;;;;;0.32;0.00;;;24.00;91.50;;;;;;5089282;28;20485;-77
2022/08/05 11:11:51;;;;;;;0.00;0.00;;;24.10;90.40;;;;;;5089571;28;20401;-77
2022/08/05 11:14:32;;;;;;;0.00;0.00;;;24.20;91.10;;;;;;5072104;28;20404;-78
2022/08/05 11:17:37;;;;;;;0.00;0.00;;;24.30;89.40;;;;;;5089018;28;20049;-78
2022/08/05 11:20:27;;;;;;;0.00;0.00;;;24.40;88.30;;;;;;5038371;28;20072;-78
2022/08/05 11:22:53;;;;;;;0.00;0.00;;;24.50;83.10;;;;;;5072429;28;20114;-78
2022/08/05 11:25:42;;;;;;;0.00;0.00;;;24.60;85.50;;;;;;5088787;28;20587;-78
2022/08/05 11:28:11;;;;;;;0.00;0.00;;;24.70;84.80;;;;;;5089063;28;20436;-78
2022/08/05 11:30:55;;;;;;;0.00;0.00;;;24.80;87.70;;;;;;5089082;28;20472;-78
2022/08/05 11:33:32;;;;;;;0.00;0.00;;;24.90;78.90;;;;;;5088789;28;20048;-78
2022/08/05 11:36:00;;;;;;;0.00;0.00;;;24.80;76.10;;;;;;5088283;28;20041;-79
2022/08/05 11:38:37;;;;;;;0.00;0.00;;;24.80;71.50;;;;;;5072267;28;20084;-78
2022/08/05 11:41:04;;;;;;;0.00;0.00;;;24.80;71.90;;;;;;5071237;28;20103;-79
2022/08/05 11:43:31;;;;;;;0.00;0.00;;;24.70;71.30;;;;;;5088299;28;20055;-78
2022/08/05 11:45:58;;;;;;;0.00;0.00;;;24.80;69.60;;;;;;5087377;28;20083;-79
2022/08/05 11:48:24;;;;;;;0.00;0.00;;;24.80;71.00;;;;;;5071235;28;20462;-78
2022/08/05 11:50:50;;;;;;;0.00;0.00;;;24.80;72.10;;;;;;5088407;28;20164;-79
2022/08/05 11:53:17;;;;;;;0.00;0.00;;;25.00;72.50;;;;;;5087878;28;20041;-79
2022/08/05 11:55:57;;;;;;;0.00;0.00;;;25.00;71.30;;;;;;5072482;28;20173;-79
2022/08/05 11:58:34;;;;;;;1.35;0.10;;;25.10;66.50;;;;;;5071856;28;20061;-79
2022/08/05 12:01:21;;;;;;;0.00;0.00;;;25.10;66.80;;;;;;5087433;28;20133;-79
2022/08/05 12:03:50;;;;;;;0.00;0.00;;;25.20;68.70;;;;;;5070697;28;20393;-79
2022/08/05 12:06:19;;;;;;;0.00;0.00;;;25.20;65.80;;;;;;5071064;28;20052;-79
2022/08/05 12:08:48;;;;;;;0.00;0.00;;;25.00;64.50;;;;;;5070720;28;20044;-79
2022/08/05 12:11:21;;;;;;;0.15;0.15;;;24.80;63.30;;;;;;5087441;28;20049;-79
2022/08/05 12:13:54;;;;;;;0.00;0.00;;;24.60;63.40;;;;;;5070359;28;20041;-78
2022/08/05 12:16:21;;;;;;;0.00;0.00;;;24.50;61.40;;;;;;5070206;28;20049;-78
2022/08/05 12:18:46;;;;;;;0.00;0.00;;;24.70;64.40;;;;;;5087623;28;20504;-78
2022/08/05 12:21:24;;;;;;;0.00;0.00;;;24.90;63.30;;;;;;5077388;28;20041;-79
2022/08/05 12:24:14;;;;;;;0.00;0.00;;;25.10;65.40;;;;;;5054282;28;20049;-78
2022/08/05 12:26:49;;;;;;;0.00;0.00;;;25.10;63.60;;;;;;5037326;28;20477;-79
2022/08/05 12:29:26;;;;;;;0.00;0.00;;;25.10;60.90;;;;;;5053349;28;20053;-79
2022/08/05 12:31:59;;;;;;;0.00;0.00;;;25.20;61.60;;;;;;5054224;28;20070;-78
2022/08/05 12:34:35;;;;;;;0.00;0.00;;;25.20;63.50;;;;;;5037105;28;20053;-79
2022/08/05 12:37:09;;;;;;;0.00;0.00;;;25.10;63.40;;;;;;5054316;28;20051;-79
2022/08/05 12:39:38;;;;;;;0.00;0.00;;;25.30;65.70;;;;;;5054944;28;20385;-78
2022/08/05 12:42:18;;;;;;;0.00;0.00;;;25.40;65.20;;;;;;5053672;28;20057;-79
2022/08/05 12:44:45;;;;;;;0.00;0.00;;;25.50;64.00;;;;;;5037228;28;20053;-78
2022/08/05 12:47:12;;;;;;;0.00;0.00;;;25.70;67.10;;;;;;5053374;28;20048;-79
2022/08/05 12:49:48;;;;;;;0.00;0.00;;;25.80;67.90;;;;;;5036994;28;20079;-79
2022/08/05 12:52:16;;;;;;;0.00;0.00;;;25.50;65.20;;;;;;5036904;28;20067;-79
2022/08/05 12:54:44;;;;;;;0.00;0.00;;;25.20;67.40;;;;;;5053767;28;20036;-79
2022/08/05 12:57:11;;;;;;;0.00;0.00;;;24.80;65.10;;;;;;5036820;28;20053;-79
2022/08/05 12:59:46;;;;;;;0.00;0.00;;;24.40;66.20;;;;;;5053565;28;20083;-79
2022/08/05 13:02:19;;;;;;;0.00;0.00;;;24.10;66.50;;;;;;5036578;28;20602;-79